createdAt,value
2023-05-05T00:02:09.362Z,72.30
2023-05-05T00:04:36.650Z,72.40
2023-05-05T00:07:04.030Z,72.50
2023-05-05T00:09:31.340Z,72.60
2023-05-05T00:11:58.616Z,72.50
2023-05-05T00:14:25.953Z,72.50
2023-05-05T00:16:53.239Z,72.40
2023-05-05T00:19:20.495Z,72.40
2023-05-05T00:21:47.727Z,72.50
2023-05-05T00:24:14.990Z,72.50
2023-05-05T00:26:42.263Z,72.70
2023-05-05T00:29:09.486Z,72.80
2023-05-05T00:31:37.594Z,72.80
2023-05-05T00:34:04.985Z,72.90
2023-05-05T00:36:32.259Z,72.90
2023-05-05T00:38:59.778Z,72.90
2023-05-05T00:41:27.208Z,73.00
2023-05-05T00:43:54.526Z,73.00
2023-05-05T00:46:28.026Z,73.00
2023-05-05T00:48:55.886Z,73.10
2023-05-05T00:51:24.100Z,73.20
2023-05-05T00:53:52.171Z,73.20
2023-05-05T00:56:21.880Z,73.40
2023-05-05T00:58:49.618Z,73.60
2023-05-05T01:01:17.545Z,73.60
2023-05-05T01:03:45.022Z,73.80
2023-05-05T01:06:32.697Z,74.10
2023-05-05T01:09:38.301Z,74.30
2023-05-05T01:12:15.142Z,74.40
2023-05-05T01:14:49.187Z,74.70
2023-05-05T01:17:22.182Z,74.90
2023-05-05T01:19:59.536Z,74.90
2023-05-05T01:22:38.127Z,74.90
2023-05-05T01:25:41.864Z,75.20
2023-05-05T01:28:11.861Z,75.20
2023-05-05T01:30:48.363Z,75.50
2023-05-05T01:33:23.183Z,75.60
2023-05-05T01:35:55.036Z,75.80
2023-05-05T01:38:37.840Z,75.90
2023-05-05T01:41:17.801Z,76.00
2023-05-05T01:43:47.395Z,76.00
2023-05-05T01:46:17.902Z,76.30
2023-05-05T01:48:47.137Z,76.50
2023-05-05T01:51:17.005Z,76.70
2023-05-05T01:53:47.013Z,76.80
2023-05-05T01:56:15.469Z,76.70
2023-05-05T01:58:46.550Z,76.90
2023-05-05T02:01:16.389Z,77.10
2023-05-05T02:03:45.309Z,77.20
2023-05-05T02:06:14.752Z,77.40
2023-05-05T02:08:43.761Z,77.60
2023-05-05T02:11:12.543Z,77.70
2023-05-05T02:13:42.792Z,77.90
2023-05-05T02:16:16.728Z,78.00
2023-05-05T02:18:47.144Z,78.20
2023-05-05T02:21:17.670Z,78.40
2023-05-05T02:23:51.662Z,78.50
2023-05-05T02:26:21.924Z,78.80
2023-05-05T02:29:02.465Z,78.90
2023-05-05T02:31:32.558Z,78.90
2023-05-05T02:34:01.807Z,79.10
2023-05-05T02:36:38.052Z,79.40
2023-05-05T02:39:12.619Z,79.60
2023-05-05T02:41:43.710Z,80.00
2023-05-05T02:44:23.434Z,80.40
2023-05-05T02:46:51.730Z,80.90
2023-05-05T02:49:19.615Z,81.20
2023-05-05T02:51:47.523Z,81.50
2023-05-05T02:54:22.295Z,82.50
2023-05-05T02:56:51.580Z,82.20
2023-05-05T02:59:47.360Z,82.60
2023-05-05T03:02:27.345Z,83.00
2023-05-05T03:05:00.914Z,83.20
2023-05-05T03:07:54.977Z,83.70
2023-05-05T03:10:30.035Z,84.10
2023-05-05T03:13:02.166Z,84.50
2023-05-05T03:15:43.164Z,85.00
2023-05-05T03:18:12.183Z,85.50
2023-05-05T03:20:43.325Z,85.90
2023-05-05T03:23:20.788Z,86.40
2023-05-05T03:25:50.406Z,86.70
2023-05-05T03:28:27.765Z,87.10
2023-05-05T03:30:57.230Z,87.80
2023-05-05T03:33:25.134Z,88.40
2023-05-05T03:35:52.488Z,89.00
2023-05-05T03:38:19.746Z,89.50
2023-05-05T03:40:47.110Z,90.00
2023-05-05T03:43:19.452Z,90.20
2023-05-05T03:45:47.067Z,90.30
2023-05-05T03:48:14.712Z,90.40
2023-05-05T03:50:45.412Z,90.60
2023-05-05T03:53:13.920Z,90.80
2023-05-05T03:55:42.179Z,91.10
2023-05-05T03:58:09.451Z,91.40
2023-05-05T04:00:36.690Z,91.60
2023-05-05T04:03:04.371Z,91.80
2023-05-05T04:05:31.718Z,92.40
2023-05-05T04:07:59.259Z,92.30
2023-05-05T04:10:26.650Z,92.50
2023-05-05T04:12:54.916Z,92.80
2023-05-05T04:15:22.407Z,93.10
2023-05-05T04:17:49.953Z,93.30
2023-05-05T04:20:17.924Z,93.50
2023-05-05T04:22:46.053Z,93.80
2023-05-05T04:25:13.864Z,94.10
2023-05-05T04:27:41.140Z,94.40
2023-05-05T04:30:09.729Z,94.80
2023-05-05T04:32:39.141Z,95.10
2023-05-05T04:35:07.763Z,95.30
2023-05-05T04:37:35.049Z,95.60
2023-05-05T04:40:02.468Z,95.90
2023-05-05T04:42:32.278Z,96.20
2023-05-05T04:44:59.767Z,96.60
2023-05-05T04:47:27.206Z,97.00
2023-05-05T04:49:55.185Z,97.40
2023-05-05T04:52:23.078Z,97.70
2023-05-05T04:54:50.369Z,97.90
2023-05-05T04:57:18.029Z,98.30
2023-05-05T04:59:45.266Z,98.60
2023-05-05T05:02:13.440Z,98.90
2023-05-05T05:04:41.201Z,99.20
2023-05-05T05:07:09.311Z,99.70
2023-05-05T05:09:36.924Z,99.80
2023-05-05T05:12:04.803Z,99.90
2023-05-05T05:14:37.803Z,99.90
2023-05-05T05:17:05.926Z,99.90
2023-05-05T05:19:34.557Z,99.90
2023-05-05T05:22:02.249Z,99.90
2023-05-05T05:24:31.364Z,99.90
2023-05-05T05:26:58.934Z,99.90
2023-05-05T05:29:27.164Z,99.90
2023-05-05T05:31:55.393Z,99.90
2023-05-05T05:34:22.949Z,99.90
2023-05-05T05:36:50.812Z,99.90
2023-05-05T05:39:18.305Z,99.90
2023-05-05T05:41:45.690Z,99.90
2023-05-05T05:44:13.387Z,99.90
2023-05-05T05:46:41.698Z,99.90
2023-05-05T05:49:09.000Z,99.90
2023-05-05T05:51:36.275Z,99.90
2023-05-05T05:54:03.758Z,99.90
2023-05-05T05:56:31.521Z,99.90
2023-05-05T05:58:58.896Z,99.90
2023-05-05T06:01:26.166Z,99.90
2023-05-05T06:03:53.837Z,99.90
2023-05-05T06:06:21.843Z,99.90
2023-05-05T06:08:49.147Z,99.90
2023-05-05T06:11:16.837Z,99.90
2023-05-05T06:13:44.486Z,99.90
2023-05-05T06:16:11.821Z,99.90
2023-05-05T06:18:41.448Z,99.90
2023-05-05T06:21:08.849Z,99.90
2023-05-05T06:23:36.363Z,99.90
2023-05-05T06:26:06.673Z,99.90
2023-05-05T06:28:33.927Z,99.90
2023-05-05T06:31:01.366Z,99.90
2023-05-05T06:33:28.706Z,99.90
2023-05-05T06:35:56.100Z,99.90
2023-05-05T06:38:23.400Z,99.90
2023-05-05T06:40:50.761Z,99.90
2023-05-05T06:43:18.188Z,99.90
2023-05-05T06:45:52.499Z,99.90
2023-05-05T06:48:20.082Z,99.90
2023-05-05T06:50:47.355Z,99.90
2023-05-05T06:53:14.615Z,99.90
2023-05-05T06:55:46.881Z,99.90
2023-05-05T06:58:14.303Z,99.90
2023-05-05T07:00:42.185Z,99.90
2023-05-05T07:03:09.510Z,99.90
2023-05-05T07:05:36.845Z,99.90
2023-05-05T07:08:04.250Z,99.90
2023-05-05T07:10:31.873Z,99.90
2023-05-05T07:12:59.221Z,99.90
2023-05-05T07:15:28.666Z,99.90
2023-05-05T07:17:57.488Z,99.90
2023-05-05T07:20:25.244Z,99.90
2023-05-05T07:22:52.703Z,99.90
2023-05-05T07:25:20.088Z,99.90
2023-05-05T07:27:47.319Z,99.90
2023-05-05T07:30:18.031Z,99.90
2023-05-05T07:32:46.395Z,99.90
2023-05-05T07:35:13.920Z,99.90
2023-05-05T07:37:41.199Z,99.90
2023-05-05T07:40:09.177Z,99.90
2023-05-05T07:42:36.674Z,99.90
2023-05-05T07:45:04.957Z,99.90
2023-05-05T07:47:32.284Z,99.90
2023-05-05T07:49:59.671Z,99.90
2023-05-05T07:52:43.341Z,99.90
2023-05-05T07:55:12.311Z,99.90
2023-05-05T07:57:39.802Z,99.90
2023-05-05T08:00:07.806Z,99.90
2023-05-05T08:02:41.406Z,99.90
2023-05-05T08:05:09.394Z,99.90
2023-05-05T08:07:41.220Z,99.90
2023-05-05T08:10:12.386Z,99.90
2023-05-05T08:12:39.995Z,99.90
2023-05-05T08:15:08.257Z,99.90
2023-05-05T08:17:55.970Z,99.90
2023-05-05T08:20:28.551Z,99.90
2023-05-05T08:22:56.216Z,99.90
2023-05-05T08:25:23.536Z,99.90
2023-05-05T08:27:50.777Z,99.90
2023-05-05T08:30:20.862Z,99.90
2023-05-05T08:32:48.143Z,99.90
2023-05-05T08:35:15.443Z,99.90
2023-05-05T08:37:42.774Z,99.90
2023-05-05T08:40:16.662Z,99.90
2023-05-05T08:42:47.094Z,99.90
2023-05-05T08:45:14.839Z,99.90
2023-05-05T08:47:43.288Z,99.90
2023-05-05T08:50:11.906Z,99.90
2023-05-05T08:52:45.056Z,99.90
2023-05-05T08:55:14.502Z,99.90
2023-05-05T08:57:51.673Z,99.70
2023-05-05T09:00:22.283Z,99.50
2023-05-05T09:02:50.107Z,99.40
2023-05-05T09:05:18.181Z,99.40
2023-05-05T09:07:47.252Z,99.70
2023-05-05T09:10:14.994Z,99.90
2023-05-05T09:12:42.892Z,99.90
2023-05-05T09:15:14.822Z,99.90
2023-05-05T09:17:42.866Z,99.90
2023-05-05T09:20:11.179Z,99.90
2023-05-05T09:22:44.180Z,99.90
2023-05-05T09:25:13.798Z,99.90
2023-05-05T09:27:43.507Z,99.90
2023-05-05T09:30:14.156Z,99.90
2023-05-05T09:32:51.409Z,99.90
2023-05-05T09:35:19.916Z,99.80
2023-05-05T09:37:47.625Z,99.80
2023-05-05T09:40:16.926Z,99.70
2023-05-05T09:42:45.008Z,99.70
2023-05-05T09:45:18.629Z,99.60
2023-05-05T09:47:46.994Z,99.50
2023-05-05T09:50:17.107Z,99.40
2023-05-05T09:52:57.564Z,99.20
2023-05-05T09:55:25.925Z,99.00
2023-05-05T09:57:53.809Z,99.10
2023-05-05T10:00:21.808Z,99.00
2023-05-05T10:02:49.235Z,98.80
2023-05-05T10:05:18.086Z,98.70
2023-05-05T10:07:47.336Z,98.50
2023-05-05T10:10:17.255Z,98.00
2023-05-05T10:12:47.570Z,97.80
2023-05-05T10:15:16.228Z,97.70
2023-05-05T10:18:02.266Z,97.40
2023-05-05T10:20:35.330Z,97.20
2023-05-05T10:23:07.173Z,96.70
2023-05-05T10:25:41.644Z,96.60
2023-05-05T10:28:11.725Z,96.40
2023-05-05T10:30:44.009Z,96.60
2023-05-05T10:33:31.696Z,96.90
2023-05-05T10:36:03.476Z,96.80
2023-05-05T10:38:32.134Z,96.60
2023-05-05T10:41:01.122Z,96.80
2023-05-05T10:43:30.156Z,96.90
2023-05-05T10:45:58.628Z,96.70
2023-05-05T10:48:37.909Z,96.50
2023-05-05T10:51:27.471Z,96.30
2023-05-05T10:54:16.542Z,95.20
2023-05-05T10:56:43.880Z,94.30
2023-05-05T10:59:39.133Z,94.10
2023-05-05T11:02:25.046Z,94.30
2023-05-05T11:05:10.044Z,94.40
2023-05-05T11:07:37.819Z,94.50
2023-05-05T11:10:10.772Z,94.90
2023-05-05T11:13:02.873Z,95.20
2023-05-05T11:15:30.552Z,95.50
2023-05-05T11:18:03.215Z,95.60
2023-05-05T11:20:36.029Z,95.40
2023-05-05T11:23:03.414Z,95.30
2023-05-05T11:25:40.917Z,95.20
2023-05-05T11:28:24.878Z,94.90
2023-05-05T11:30:55.753Z,94.90
2023-05-05T11:33:23.846Z,95.10
2023-05-05T11:35:58.498Z,95.50
2023-05-05T11:38:56.890Z,96.50
2023-05-05T11:41:33.889Z,97.20
2023-05-05T11:44:18.171Z,98.10
2023-05-05T11:46:51.761Z,99.20
2023-05-05T11:49:33.711Z,99.90
2023-05-05T11:52:13.625Z,99.90
2023-05-05T11:54:49.060Z,99.90
2023-05-05T11:57:30.164Z,99.90
2023-05-05T12:00:03.540Z,99.90
2023-05-05T12:02:32.376Z,99.90
2023-05-05T12:05:01.191Z,99.90
2023-05-05T12:07:31.324Z,99.90
2023-05-05T12:10:07.333Z,99.90
2023-05-05T12:12:46.105Z,99.90
2023-05-05T12:15:13.792Z,99.90
2023-05-05T12:17:44.914Z,99.90
2023-05-05T12:20:13.318Z,99.90
2023-05-05T12:22:41.609Z,99.90
2023-05-05T12:25:09.502Z,99.90
2023-05-05T12:27:37.042Z,99.90
2023-05-05T12:30:13.104Z,99.90
2023-05-05T12:32:40.405Z,99.90
2023-05-05T12:35:09.973Z,99.90
2023-05-05T12:37:37.932Z,99.90
2023-05-05T12:40:06.601Z,99.90
2023-05-05T12:42:39.587Z,99.90
2023-05-05T12:45:19.255Z,99.90
2023-05-05T12:47:47.074Z,99.90
2023-05-05T12:50:15.045Z,99.90
2023-05-05T12:52:51.584Z,99.90
2023-05-05T12:55:19.747Z,99.90
2023-05-05T12:58:04.684Z,99.90
2023-05-05T13:00:32.510Z,99.90
2023-05-05T13:02:59.785Z,99.90
2023-05-05T13:05:36.632Z,99.90
2023-05-05T13:08:04.163Z,99.90
2023-05-05T13:10:31.536Z,99.90
2023-05-05T13:12:59.025Z,99.90
2023-05-05T13:15:27.354Z,99.90
2023-05-05T13:18:01.534Z,99.90
2023-05-05T13:20:28.998Z,99.90
2023-05-05T13:22:57.301Z,99.90
2023-05-05T13:25:24.732Z,99.90
2023-05-05T13:27:51.984Z,99.90
2023-05-05T13:30:20.644Z,99.90
2023-05-05T13:32:48.025Z,99.90
2023-05-05T13:35:16.597Z,99.90
2023-05-05T13:37:45.917Z,99.90
2023-05-05T13:40:14.052Z,99.90
2023-05-05T13:42:41.277Z,99.90
2023-05-05T13:45:09.293Z,99.90
2023-05-05T13:47:37.175Z,99.90
2023-05-05T13:50:04.770Z,99.90
2023-05-05T13:52:33.442Z,99.90
2023-05-05T13:55:00.960Z,99.90
2023-05-05T13:57:28.429Z,99.90
2023-05-05T13:59:55.855Z,99.90
2023-05-05T14:02:23.160Z,99.90
2023-05-05T14:04:50.452Z,99.90
2023-05-05T14:07:17.871Z,99.90
2023-05-05T14:09:45.230Z,99.90
2023-05-05T14:12:12.447Z,99.90
2023-05-05T14:14:40.202Z,99.90
2023-05-05T14:17:07.399Z,99.90
2023-05-05T14:19:34.813Z,99.90
2023-05-05T14:22:02.099Z,99.90
2023-05-05T14:24:29.403Z,99.90
2023-05-05T14:26:57.059Z,99.90
2023-05-05T14:29:24.386Z,99.90
2023-05-05T14:31:52.192Z,99.90
2023-05-05T14:34:19.456Z,99.90
2023-05-05T14:36:46.722Z,99.90
2023-05-05T14:39:13.983Z,99.90
2023-05-05T14:41:41.230Z,99.90
2023-05-05T14:44:08.483Z,99.90
2023-05-05T14:46:35.948Z,99.90
2023-05-05T14:49:03.261Z,99.90
2023-05-05T14:51:31.409Z,99.90
2023-05-05T14:53:58.994Z,99.90
2023-05-05T14:56:26.545Z,99.90
2023-05-05T14:58:54.111Z,99.90
2023-05-05T15:01:21.473Z,99.90
2023-05-05T15:03:48.862Z,99.90
2023-05-05T15:06:16.508Z,99.90
2023-05-05T15:08:43.748Z,99.90
2023-05-05T15:11:11.115Z,99.90
2023-05-05T15:13:40.116Z,99.90
2023-05-05T15:16:10.551Z,99.90
2023-05-05T15:18:38.278Z,99.90
2023-05-05T15:21:05.894Z,99.90
2023-05-05T15:23:33.254Z,99.90
2023-05-05T15:26:01.086Z,99.90
2023-05-05T15:28:28.308Z,99.90
2023-05-05T15:30:55.673Z,99.90
2023-05-05T15:33:23.011Z,99.90
2023-05-05T15:35:50.316Z,99.90
2023-05-05T15:38:17.586Z,99.90
2023-05-05T15:40:47.118Z,99.90
2023-05-05T15:43:15.670Z,99.90
2023-05-05T15:45:42.911Z,99.90
2023-05-05T15:48:10.499Z,99.90
2023-05-05T15:50:37.842Z,99.90
2023-05-05T15:53:05.080Z,99.90
2023-05-05T15:55:32.394Z,99.90
2023-05-05T15:57:59.668Z,99.90
2023-05-05T16:00:26.959Z,99.90
2023-05-05T16:02:54.233Z,99.90
2023-05-05T16:05:23.075Z,99.90
2023-05-05T16:07:50.878Z,99.90
2023-05-05T16:10:19.411Z,99.90
2023-05-05T16:12:46.789Z,99.90
2023-05-05T16:15:14.075Z,99.90
2023-05-05T16:17:41.266Z,99.90
2023-05-05T16:20:09.117Z,99.90
2023-05-05T16:22:36.884Z,99.90
2023-05-05T16:25:04.570Z,99.90
2023-05-05T16:27:31.951Z,99.90
2023-05-05T16:29:59.911Z,99.90
2023-05-05T16:32:27.398Z,99.90
2023-05-05T16:34:55.154Z,99.90
2023-05-05T16:37:22.344Z,99.90
2023-05-05T16:39:49.544Z,99.90
2023-05-05T16:42:16.864Z,99.90
2023-05-05T16:44:44.092Z,99.90
2023-05-05T16:47:11.352Z,99.90
2023-05-05T16:49:38.609Z,99.90
2023-05-05T16:52:05.819Z,99.90
2023-05-05T16:54:33.093Z,99.90
2023-05-05T16:57:00.381Z,99.90
2023-05-05T16:59:28.815Z,99.90
2023-05-05T17:01:57.819Z,99.90
2023-05-05T17:04:25.055Z,99.90
2023-05-05T17:06:52.266Z,99.90
2023-05-05T17:09:19.570Z,99.90
2023-05-05T17:11:46.804Z,99.90
2023-05-05T17:14:14.102Z,99.90
2023-05-05T17:16:41.434Z,99.90
2023-05-05T17:19:08.897Z,99.90
2023-05-05T17:21:38.559Z,99.90
2023-05-05T17:24:06.496Z,99.90
2023-05-05T17:26:33.700Z,99.90
2023-05-05T17:29:00.974Z,99.90
2023-05-05T17:31:28.329Z,99.90
2023-05-05T17:33:55.994Z,99.90
2023-05-05T17:36:23.256Z,99.90
2023-05-05T17:38:50.590Z,99.90
2023-05-05T17:41:17.820Z,99.90
2023-05-05T17:43:45.169Z,99.90
2023-05-05T17:46:12.493Z,99.90
2023-05-05T17:48:39.802Z,99.90
2023-05-05T17:51:07.125Z,99.90
2023-05-05T17:53:34.480Z,99.90
2023-05-05T17:56:01.877Z,99.90
2023-05-05T17:58:29.191Z,99.90
2023-05-05T18:00:56.445Z,99.90
2023-05-05T18:03:23.907Z,99.90
2023-05-05T18:05:51.207Z,99.90
2023-05-05T18:08:18.548Z,99.90
2023-05-05T18:10:45.770Z,99.90
2023-05-05T18:13:13.046Z,99.90
2023-05-05T18:15:40.357Z,99.90
2023-05-05T18:18:07.707Z,99.90
2023-05-05T18:20:35.119Z,99.90
2023-05-05T18:23:02.466Z,99.90
2023-05-05T18:25:29.696Z,99.90
2023-05-05T18:27:56.927Z,99.90
2023-05-05T18:30:24.169Z,99.90
2023-05-05T18:32:51.404Z,99.90
2023-05-05T18:35:19.013Z,99.90
2023-05-05T18:37:46.502Z,99.90
2023-05-05T18:40:13.924Z,99.90
2023-05-05T18:42:41.555Z,99.90
2023-05-05T18:45:10.760Z,99.90
2023-05-05T18:47:41.529Z,99.90
2023-05-05T18:50:09.936Z,99.90
2023-05-05T18:52:37.191Z,99.90
2023-05-05T18:55:04.654Z,99.90
2023-05-05T18:57:32.209Z,99.90
2023-05-05T19:00:00.411Z,99.90
2023-05-05T19:02:27.664Z,99.90
2023-05-05T19:04:54.950Z,99.90
2023-05-05T19:07:33.764Z,99.90
2023-05-05T19:10:04.226Z,99.90
2023-05-05T19:12:31.770Z,99.90
2023-05-05T19:14:59.045Z,99.90
2023-05-05T19:17:26.420Z,99.90
2023-05-05T19:19:53.629Z,99.90
2023-05-05T19:22:22.978Z,99.90
2023-05-05T19:24:50.462Z,99.90
2023-05-05T19:27:17.885Z,99.90
2023-05-05T19:29:45.130Z,99.90
2023-05-05T19:32:12.745Z,99.90
2023-05-05T19:34:42.257Z,99.90
2023-05-05T19:37:09.678Z,99.90
2023-05-05T19:39:37.068Z,99.90
2023-05-05T19:42:04.580Z,99.90
2023-05-05T19:44:34.840Z,99.90
2023-05-05T19:47:02.107Z,99.90
2023-05-05T19:49:29.358Z,99.90
2023-05-05T19:51:58.724Z,99.90
2023-05-05T19:54:27.217Z,99.90
2023-05-05T19:56:57.171Z,99.90
2023-05-05T19:59:24.718Z,99.90
2023-05-05T20:01:52.209Z,99.90
2023-05-05T20:04:19.428Z,99.90
2023-05-05T20:06:46.688Z,99.90
2023-05-05T20:09:13.984Z,99.90
2023-05-05T20:11:41.188Z,99.90
2023-05-05T20:14:08.411Z,99.90
2023-05-05T20:16:36.431Z,99.90
2023-05-05T20:19:05.090Z,99.90
2023-05-05T20:21:33.708Z,99.90
2023-05-05T20:24:01.078Z,99.90
2023-05-05T20:26:28.439Z,99.90
2023-05-05T20:28:55.631Z,99.90
2023-05-05T20:31:23.205Z,99.90
2023-05-05T20:33:50.656Z,99.90
2023-05-05T20:36:18.309Z,99.90
2023-05-05T20:38:45.629Z,99.90
2023-05-05T20:41:12.803Z,99.90
2023-05-05T20:43:40.080Z,99.90
2023-05-05T20:46:12.909Z,99.90
2023-05-05T20:48:42.704Z,99.90
2023-05-05T20:51:10.574Z,99.90
2023-05-05T20:53:37.757Z,99.90
2023-05-05T20:56:08.611Z,99.90
2023-05-05T20:58:36.505Z,99.90
2023-05-05T21:01:03.829Z,99.90
2023-05-05T21:03:31.211Z,99.90
2023-05-05T21:05:58.552Z,99.90
2023-05-05T21:08:26.085Z,99.90
2023-05-05T21:10:53.266Z,99.90
2023-05-05T21:13:20.627Z,99.90
2023-05-05T21:15:50.334Z,99.90
2023-05-05T21:18:18.731Z,99.90
2023-05-05T21:20:45.987Z,99.90
2023-05-05T21:23:13.158Z,99.90
2023-05-05T21:25:40.647Z,99.90
2023-05-05T21:28:07.857Z,99.90
2023-05-05T21:30:35.093Z,99.90
2023-05-05T21:33:02.377Z,99.90
2023-05-05T21:35:29.853Z,99.90
2023-05-05T21:37:57.173Z,99.90
2023-05-05T21:40:24.467Z,99.90
2023-05-05T21:42:51.668Z,99.90
2023-05-05T21:45:18.936Z,99.90
2023-05-05T21:47:46.219Z,99.90
2023-05-05T21:50:13.680Z,99.90
2023-05-05T21:52:41.415Z,99.90
2023-05-05T21:55:10.933Z,99.90
2023-05-05T21:57:38.247Z,99.90
2023-05-05T22:00:07.987Z,99.90
2023-05-05T22:02:39.683Z,99.90
2023-05-05T22:05:07.503Z,99.90
2023-05-05T22:07:34.922Z,99.90
2023-05-05T22:10:03.621Z,99.90
2023-05-05T22:12:30.848Z,99.90
2023-05-05T22:14:58.067Z,99.90
2023-05-05T22:17:25.391Z,99.90
2023-05-05T22:19:52.809Z,99.90
2023-05-05T22:22:20.042Z,99.90
2023-05-05T22:24:47.260Z,99.90
2023-05-05T22:27:14.461Z,99.90
2023-05-05T22:29:41.892Z,99.90
2023-05-05T22:32:09.183Z,99.90
2023-05-05T22:34:36.493Z,99.90
2023-05-05T22:37:03.769Z,99.90
2023-05-05T22:39:31.167Z,99.90
2023-05-05T22:41:58.558Z,99.90
2023-05-05T22:44:25.807Z,99.90
2023-05-05T22:46:53.087Z,99.90
2023-05-05T22:49:20.958Z,99.90
2023-05-05T22:51:48.463Z,99.90
2023-05-05T22:54:15.689Z,99.90
2023-05-05T22:56:42.922Z,99.90
2023-05-05T22:59:10.508Z,99.90
2023-05-05T23:01:38.354Z,99.90
2023-05-05T23:04:06.515Z,99.90
2023-05-05T23:06:33.779Z,99.90
2023-05-05T23:09:01.006Z,99.90
2023-05-05T23:11:28.254Z,99.90
2023-05-05T23:13:55.536Z,99.90
2023-05-05T23:16:22.871Z,99.90
2023-05-05T23:18:51.731Z,99.90
2023-05-05T23:21:19.009Z,99.90
2023-05-05T23:23:46.311Z,99.90
2023-05-05T23:26:13.591Z,99.90
2023-05-05T23:28:40.815Z,99.90
2023-05-05T23:31:09.032Z,99.90
2023-05-05T23:33:36.242Z,99.90
2023-05-05T23:36:03.953Z,99.90
2023-05-05T23:38:31.300Z,99.90
2023-05-05T23:40:58.606Z,99.90
2023-05-05T23:43:25.864Z,99.90
2023-05-05T23:45:53.127Z,99.90
2023-05-05T23:48:21.214Z,99.90
2023-05-05T23:50:48.443Z,99.90
2023-05-05T23:53:16.197Z,99.90
2023-05-05T23:55:43.529Z,99.90
2023-05-05T23:58:10.767Z,99.90
